sensor_id;sensor_type;location;lat;lon;timestamp;temperature;humidity
27741;DHT22;15134;48.768;9.184;2023-03-01T00:01:12;0.70;99.90
27741;DHT22;15134;48.768;9.184;2023-03-01T00:03:39;0.70;99.90
27741;DHT22;15134;48.768;9.184;2023-03-01T00:06:06;0.70;99.90
27741;DHT22;15134;48.768;9.184;2023-03-01T00:08:32;0.60;99.90
27741;DHT22;15134;48.768;9.184;2023-03-01T00:11:08;0.60;99.90
27741;DHT22;15134;48.768;9.184;2023-03-01T00:13:35;0.60;99.90
27741;DHT22;15134;48.768;9.184;2023-03-01T00:16:07;0.60;99.90
27741;DHT22;15134;48.768;9.184;2023-03-01T00:18:33;0.60;99.90
27741;DHT22;15134;48.768;9.184;2023-03-01T00:21:05;0.70;99.90
27741;DHT22;15134;48.768;9.184;2023-03-01T00:23:34;0.70;99.90
27741;DHT22;15134;48.768;9.184;2023-03-01T00:25:59;0.70;99.90
27741;DHT22;15134;48.768;9.184;2023-03-01T00:28:25;0.60;99.90
27741;DHT22;15134;48.768;9.184;2023-03-01T00:30:52;0.60;99.90
27741;DHT22;15134;48.768;9.184;2023-03-01T00:33:18;0.60;99.90
27741;DHT22;15134;48.768;9.184;2023-03-01T00:35:44;0.60;99.90
27741;DHT22;15134;48.768;9.184;2023-03-01T00:38:09;0.70;99.90
27741;DHT22;15134;48.768;9.184;2023-03-01T00:40:36;0.70;99.90
27741;DHT22;15134;48.768;9.184;2023-03-01T00:43:02;0.70;99.90
27741;DHT22;15134;48.768;9.184;2023-03-01T00:45:29;0.70;99.90
27741;DHT22;15134;48.768;9.184;2023-03-01T00:47:56;0.70;99.90
27741;DHT22;15134;48.768;9.184;2023-03-01T00:50:23;0.60;99.90
27741;DHT22;15134;48.768;9.184;2023-03-01T00:52:55;0.60;99.90
27741;DHT22;15134;48.768;9.184;2023-03-01T00:55:24;0.50;99.90
27741;DHT22;15134;48.768;9.184;2023-03-01T00:57:53;0.50;99.90
27741;DHT22;15134;48.768;9.184;2023-03-01T01:00:19;0.60;99.90
27741;DHT22;15134;48.768;9.184;2023-03-01T01:02:47;0.60;99.90
27741;DHT22;15134;48.768;9.184;2023-03-01T01:05:15;0.60;99.90
27741;DHT22;15134;48.768;9.184;2023-03-01T01:07:47;0.60;99.90
27741;DHT22;15134;48.768;9.184;2023-03-01T01:10:19;0.50;99.90
27741;DHT22;15134;48.768;9.184;2023-03-01T01:12:45;0.60;99.90
27741;DHT22;15134;48.768;9.184;2023-03-01T01:15:12;0.60;99.90
27741;DHT22;15134;48.768;9.184;2023-03-01T01:17:40;0.60;99.90
27741;DHT22;15134;48.768;9.184;2023-03-01T01:20:06;0.50;99.90
27741;DHT22;15134;48.768;9.184;2023-03-01T01:22:36;0.30;99.90
27741;DHT22;15134;48.768;9.184;2023-03-01T01:25:04;0.20;99.90
27741;DHT22;15134;48.768;9.184;2023-03-01T01:27:29;0.20;99.90
27741;DHT22;15134;48.768;9.184;2023-03-01T01:29:55;0.20;99.90
27741;DHT22;15134;48.768;9.184;2023-03-01T01:32:22;0.20;99.90
27741;DHT22;15134;48.768;9.184;2023-03-01T01:34:48;0.20;99.90
27741;DHT22;15134;48.768;9.184;2023-03-01T01:37:14;0.20;99.90
27741;DHT22;15134;48.768;9.184;2023-03-01T01:39:43;0.10;99.90
27741;DHT22;15134;48.768;9.184;2023-03-01T01:42:16;0.10;99.90
27741;DHT22;15134;48.768;9.184;2023-03-01T01:44:46;0.20;99.90
27741;DHT22;15134;48.768;9.184;2023-03-01T01:47:19;0.10;99.90
27741;DHT22;15134;48.768;9.184;2023-03-01T01:49:56;0.10;99.90
27741;DHT22;15134;48.768;9.184;2023-03-01T01:52:35;0.20;99.90
27741;DHT22;15134;48.768;9.184;2023-03-01T01:55:10;0.30;99.90
27741;DHT22;15134;48.768;9.184;2023-03-01T01:57:58;0.40;99.90
27741;DHT22;15134;48.768;9.184;2023-03-01T02:00:28;0.50;99.90
27741;DHT22;15134;48.768;9.184;2023-03-01T02:02:59;0.60;99.90
27741;DHT22;15134;48.768;9.184;2023-03-01T02:06:04;0.70;99.90
27741;DHT22;15134;48.768;9.184;2023-03-01T02:08:32;0.70;99.90
27741;DHT22;15134;48.768;9.184;2023-03-01T02:10:59;0.70;99.90
27741;DHT22;15134;48.768;9.184;2023-03-01T02:13:33;0.70;99.90
27741;DHT22;15134;48.768;9.184;2023-03-01T02:16:01;0.70;99.90
27741;DHT22;15134;48.768;9.184;2023-03-01T02:18:28;0.80;99.90
27741;DHT22;15134;48.768;9.184;2023-03-01T02:23:33;0.90;99.90
27741;DHT22;15134;48.768;9.184;2023-03-01T02:26:15;1.00;99.90
27741;DHT22;15134;48.768;9.184;2023-03-01T02:28:43;1.10;99.90
27741;DHT22;15134;48.768;9.184;2023-03-01T02:31:13;1.00;99.90
27741;DHT22;15134;48.768;9.184;2023-03-01T02:33:58;0.90;99.90
27741;DHT22;15134;48.768;9.184;2023-03-01T02:36:29;1.00;99.90
27741;DHT22;15134;48.768;9.184;2023-03-01T02:38:57;1.00;99.90
27741;DHT22;15134;48.768;9.184;2023-03-01T02:41:32;1.00;99.90
27741;DHT22;15134;48.768;9.184;2023-03-01T02:43:59;1.00;99.90
27741;DHT22;15134;48.768;9.184;2023-03-01T02:46:26;1.10;99.90
27741;DHT22;15134;48.768;9.184;2023-03-01T02:48:54;1.10;99.90
27741;DHT22;15134;48.768;9.184;2023-03-01T02:51:31;1.10;99.90
27741;DHT22;15134;48.768;9.184;2023-03-01T02:54:08;1.10;99.90
27741;DHT22;15134;48.768;9.184;2023-03-01T02:56:36;1.20;99.90
27741;DHT22;15134;48.768;9.184;2023-03-01T02:59:02;1.10;99.90
27741;DHT22;15134;48.768;9.184;2023-03-01T03:01:29;1.20;99.90
27741;DHT22;15134;48.768;9.184;2023-03-01T03:04:14;1.10;99.90
27741;DHT22;15134;48.768;9.184;2023-03-01T03:06:46;1.10;99.90
27741;DHT22;15134;48.768;9.184;2023-03-01T03:09:13;1.10;99.90
27741;DHT22;15134;48.768;9.184;2023-03-01T03:11:41;1.10;99.90
27741;DHT22;15134;48.768;9.184;2023-03-01T03:14:10;1.20;99.90
27741;DHT22;15134;48.768;9.184;2023-03-01T03:16:43;1.20;99.90
27741;DHT22;15134;48.768;9.184;2023-03-01T03:19:10;1.20;99.90
27741;DHT22;15134;48.768;9.184;2023-03-01T03:21:39;1.20;99.90
27741;DHT22;15134;48.768;9.184;2023-03-01T03:24:05;1.20;99.90
27741;DHT22;15134;48.768;9.184;2023-03-01T03:26:32;1.10;99.90
27741;DHT22;15134;48.768;9.184;2023-03-01T03:28:58;1.20;99.90
27741;DHT22;15134;48.768;9.184;2023-03-01T03:31:24;1.20;99.90
27741;DHT22;15134;48.768;9.184;2023-03-01T03:33:49;1.30;99.90
27741;DHT22;15134;48.768;9.184;2023-03-01T03:36:21;1.30;99.90
27741;DHT22;15134;48.768;9.184;2023-03-01T03:38:49;1.30;99.90
27741;DHT22;15134;48.768;9.184;2023-03-01T03:41:16;1.30;99.90
27741;DHT22;15134;48.768;9.184;2023-03-01T03:43:43;1.40;99.90
27741;DHT22;15134;48.768;9.184;2023-03-01T03:46:10;1.40;99.90
27741;DHT22;15134;48.768;9.184;2023-03-01T03:48:44;1.50;99.90
27741;DHT22;15134;48.768;9.184;2023-03-01T03:51:18;1.50;99.90
27741;DHT22;15134;48.768;9.184;2023-03-01T03:53:45;1.40;99.90
27741;DHT22;15134;48.768;9.184;2023-03-01T03:56:11;1.40;99.90
27741;DHT22;15134;48.768;9.184;2023-03-01T03:58:37;1.40;99.90
27741;DHT22;15134;48.768;9.184;2023-03-01T04:01:06;1.30;99.90
27741;DHT22;15134;48.768;9.184;2023-03-01T04:03:33;1.30;99.90
27741;DHT22;15134;48.768;9.184;2023-03-01T04:06:00;1.30;99.90
27741;DHT22;15134;48.768;9.184;2023-03-01T04:08:33;1.30;99.90
27741;DHT22;15134;48.768;9.184;2023-03-01T04:11:03;1.30;99.90
27741;DHT22;15134;48.768;9.184;2023-03-01T04:13:48;1.30;99.90
27741;DHT22;15134;48.768;9.184;2023-03-01T04:16:14;1.30;99.90
27741;DHT22;15134;48.768;9.184;2023-03-01T04:18:40;1.40;99.90
27741;DHT22;15134;48.768;9.184;2023-03-01T04:21:06;1.40;99.90
27741;DHT22;15134;48.768;9.184;2023-03-01T04:23:31;1.50;99.90
27741;DHT22;15134;48.768;9.184;2023-03-01T04:26:01;1.40;99.90
27741;DHT22;15134;48.768;9.184;2023-03-01T04:28:38;1.40;99.90
27741;DHT22;15134;48.768;9.184;2023-03-01T04:31:09;1.40;99.90
27741;DHT22;15134;48.768;9.184;2023-03-01T04:33:45;1.40;99.90
27741;DHT22;15134;48.768;9.184;2023-03-01T04:36:12;1.40;99.90
27741;DHT22;15134;48.768;9.184;2023-03-01T04:38:41;1.40;99.90
27741;DHT22;15134;48.768;9.184;2023-03-01T04:41:09;1.40;99.90
27741;DHT22;15134;48.768;9.184;2023-03-01T04:43:38;1.50;99.90
27741;DHT22;15134;48.768;9.184;2023-03-01T04:46:06;1.50;99.90
27741;DHT22;15134;48.768;9.184;2023-03-01T04:48:35;1.50;99.90
27741;DHT22;15134;48.768;9.184;2023-03-01T04:51:01;1.60;99.90
27741;DHT22;15134;48.768;9.184;2023-03-01T04:53:28;1.50;99.90
27741;DHT22;15134;48.768;9.184;2023-03-01T04:55:57;1.60;99.90
27741;DHT22;15134;48.768;9.184;2023-03-01T04:58:27;1.60;99.90
27741;DHT22;15134;48.768;9.184;2023-03-01T05:00:53;1.60;99.90
27741;DHT22;15134;48.768;9.184;2023-03-01T05:03:19;1.60;99.90
27741;DHT22;15134;48.768;9.184;2023-03-01T05:05:48;1.50;99.90
27741;DHT22;15134;48.768;9.184;2023-03-01T05:08:15;1.50;99.90
27741;DHT22;15134;48.768;9.184;2023-03-01T05:10:52;1.50;99.90
27741;DHT22;15134;48.768;9.184;2023-03-01T05:13:20;1.50;99.90
27741;DHT22;15134;48.768;9.184;2023-03-01T05:15:48;1.40;99.90
27741;DHT22;15134;48.768;9.184;2023-03-01T05:18:26;1.40;99.90
27741;DHT22;15134;48.768;9.184;2023-03-01T05:20:53;1.40;99.90
27741;DHT22;15134;48.768;9.184;2023-03-01T05:23:22;1.40;99.90
27741;DHT22;15134;48.768;9.184;2023-03-01T05:25:48;1.40;99.90
27741;DHT22;15134;48.768;9.184;2023-03-01T05:28:20;1.40;99.90
27741;DHT22;15134;48.768;9.184;2023-03-01T05:30:46;1.50;99.90
27741;DHT22;15134;48.768;9.184;2023-03-01T05:33:13;1.50;99.90
27741;DHT22;15134;48.768;9.184;2023-03-01T05:35:41;1.50;99.90
27741;DHT22;15134;48.768;9.184;2023-03-01T05:38:08;1.50;99.90
27741;DHT22;15134;48.768;9.184;2023-03-01T05:40:34;1.50;99.90
27741;DHT22;15134;48.768;9.184;2023-03-01T05:43:00;1.50;99.90
27741;DHT22;15134;48.768;9.184;2023-03-01T05:45:27;1.60;99.90
27741;DHT22;15134;48.768;9.184;2023-03-01T05:47:54;1.60;99.90
27741;DHT22;15134;48.768;9.184;2023-03-01T05:50:23;1.60;99.90
27741;DHT22;15134;48.768;9.184;2023-03-01T05:53:06;1.60;99.90
27741;DHT22;15134;48.768;9.184;2023-03-01T05:55:34;1.60;99.90
27741;DHT22;15134;48.768;9.184;2023-03-01T05:58:02;1.60;99.90
27741;DHT22;15134;48.768;9.184;2023-03-01T06:00:29;1.60;99.90
27741;DHT22;15134;48.768;9.184;2023-03-01T06:02:55;1.60;99.90
27741;DHT22;15134;48.768;9.184;2023-03-01T06:05:21;1.60;99.90
27741;DHT22;15134;48.768;9.184;2023-03-01T06:07:48;1.60;99.90
27741;DHT22;15134;48.768;9.184;2023-03-01T06:10:14;1.50;99.90
27741;DHT22;15134;48.768;9.184;2023-03-01T06:12:41;1.60;99.90
27741;DHT22;15134;48.768;9.184;2023-03-01T06:15:08;1.60;99.90
27741;DHT22;15134;48.768;9.184;2023-03-01T06:17:44;1.50;99.90
27741;DHT22;15134;48.768;9.184;2023-03-01T06:20:16;1.50;99.90
27741;DHT22;15134;48.768;9.184;2023-03-01T06:22:48;1.60;99.90
27741;DHT22;15134;48.768;9.184;2023-03-01T06:25:17;1.60;99.90
27741;DHT22;15134;48.768;9.184;2023-03-01T06:27:43;1.60;99.90
27741;DHT22;15134;48.768;9.184;2023-03-01T06:30:12;1.60;99.90
27741;DHT22;15134;48.768;9.184;2023-03-01T06:32:40;1.70;99.90
27741;DHT22;15134;48.768;9.184;2023-03-01T06:35:10;1.80;99.90
27741;DHT22;15134;48.768;9.184;2023-03-01T06:37:36;1.70;99.90
27741;DHT22;15134;48.768;9.184;2023-03-01T06:40:04;1.70;99.90
27741;DHT22;15134;48.768;9.184;2023-03-01T06:42:35;1.70;99.90
27741;DHT22;15134;48.768;9.184;2023-03-01T06:45:01;1.70;99.90
27741;DHT22;15134;48.768;9.184;2023-03-01T06:47:27;1.60;99.90
27741;DHT22;15134;48.768;9.184;2023-03-01T06:49:52;1.60;99.90
27741;DHT22;15134;48.768;9.184;2023-03-01T06:52:18;1.50;99.90
27741;DHT22;15134;48.768;9.184;2023-03-01T06:54:45;1.50;99.90
27741;DHT22;15134;48.768;9.184;2023-03-01T06:57:11;1.50;99.90
27741;DHT22;15134;48.768;9.184;2023-03-01T06:59:37;1.40;99.90
27741;DHT22;15134;48.768;9.184;2023-03-01T07:02:02;1.50;99.90
27741;DHT22;15134;48.768;9.184;2023-03-01T07:04:28;1.50;99.90
27741;DHT22;15134;48.768;9.184;2023-03-01T07:06:58;1.40;99.90
27741;DHT22;15134;48.768;9.184;2023-03-01T07:09:24;1.50;99.90
27741;DHT22;15134;48.768;9.184;2023-03-01T07:11:50;1.50;99.90
27741;DHT22;15134;48.768;9.184;2023-03-01T07:14:16;1.50;99.90
27741;DHT22;15134;48.768;9.184;2023-03-01T07:16:45;1.40;99.90
27741;DHT22;15134;48.768;9.184;2023-03-01T07:19:10;1.50;99.90
27741;DHT22;15134;48.768;9.184;2023-03-01T07:21:37;1.50;99.90
27741;DHT22;15134;48.768;9.184;2023-03-01T07:24:06;1.40;99.90
27741;DHT22;15134;48.768;9.184;2023-03-01T07:26:34;1.40;99.90
27741;DHT22;15134;48.768;9.184;2023-03-01T07:29:01;1.40;99.90
27741;DHT22;15134;48.768;9.184;2023-03-01T07:31:27;1.40;99.90
27741;DHT22;15134;48.768;9.184;2023-03-01T07:33:58;1.50;99.90
27741;DHT22;15134;48.768;9.184;2023-03-01T07:36:24;1.50;99.90
27741;DHT22;15134;48.768;9.184;2023-03-01T07:38:55;1.50;99.90
27741;DHT22;15134;48.768;9.184;2023-03-01T07:41:22;1.40;99.90
27741;DHT22;15134;48.768;9.184;2023-03-01T07:43:47;1.50;99.90
27741;DHT22;15134;48.768;9.184;2023-03-01T07:46:13;1.40;99.90
27741;DHT22;15134;48.768;9.184;2023-03-01T07:48:39;1.50;99.90
27741;DHT22;15134;48.768;9.184;2023-03-01T07:51:06;1.60;99.90
27741;DHT22;15134;48.768;9.184;2023-03-01T07:53:33;1.70;99.90
27741;DHT22;15134;48.768;9.184;2023-03-01T07:56:08;1.90;99.90
27741;DHT22;15134;48.768;9.184;2023-03-01T07:58:35;1.90;99.90
27741;DHT22;15134;48.768;9.184;2023-03-01T08:01:10;2.00;99.90
27741;DHT22;15134;48.768;9.184;2023-03-01T08:03:36;2.00;99.90
27741;DHT22;15134;48.768;9.184;2023-03-01T08:06:10;2.00;99.90
27741;DHT22;15134;48.768;9.184;2023-03-01T08:08:37;2.10;99.90
27741;DHT22;15134;48.768;9.184;2023-03-01T08:11:11;2.10;99.90
27741;DHT22;15134;48.768;9.184;2023-03-01T08:13:37;2.20;99.90
27741;DHT22;15134;48.768;9.184;2023-03-01T08:16:11;2.00;99.90
27741;DHT22;15134;48.768;9.184;2023-03-01T08:18:37;2.10;99.90
27741;DHT22;15134;48.768;9.184;2023-03-01T08:21:11;2.20;99.90
27741;DHT22;15134;48.768;9.184;2023-03-01T08:23:38;2.20;99.90
27741;DHT22;15134;48.768;9.184;2023-03-01T08:26:15;2.30;99.90
27741;DHT22;15134;48.768;9.184;2023-03-01T08:28:48;2.40;99.90
27741;DHT22;15134;48.768;9.184;2023-03-01T08:31:18;2.40;99.90
27741;DHT22;15134;48.768;9.184;2023-03-01T08:33:47;2.40;99.90
27741;DHT22;15134;48.768;9.184;2023-03-01T08:36:19;2.50;99.90
27741;DHT22;15134;48.768;9.184;2023-03-01T08:38:46;3.20;99.90
27741;DHT22;15134;48.768;9.184;2023-03-01T08:41:13;4.70;99.90
27741;DHT22;15134;48.768;9.184;2023-03-01T08:43:38;5.40;99.90
27741;DHT22;15134;48.768;9.184;2023-03-01T08:46:07;5.40;99.90
27741;DHT22;15134;48.768;9.184;2023-03-01T08:48:33;5.40;99.90
27741;DHT22;15134;48.768;9.184;2023-03-01T08:51:15;5.70;99.90
27741;DHT22;15134;48.768;9.184;2023-03-01T08:53:41;6.20;99.90
27741;DHT22;15134;48.768;9.184;2023-03-01T08:56:08;7.20;99.90
27741;DHT22;15134;48.768;9.184;2023-03-01T08:58:43;8.20;99.90
27741;DHT22;15134;48.768;9.184;2023-03-01T09:01:13;8.50;99.90
27741;DHT22;15134;48.768;9.184;2023-03-01T09:03:39;8.60;99.90
27741;DHT22;15134;48.768;9.184;2023-03-01T09:06:06;8.50;99.90
27741;DHT22;15134;48.768;9.184;2023-03-01T09:08:38;8.20;99.90
27741;DHT22;15134;48.768;9.184;2023-03-01T09:11:06;7.80;99.90
27741;DHT22;15134;48.768;9.184;2023-03-01T09:13:32;7.50;99.90
27741;DHT22;15134;48.768;9.184;2023-03-01T09:15:58;7.50;99.90
27741;DHT22;15134;48.768;9.184;2023-03-01T09:18:32;7.40;99.90
27741;DHT22;15134;48.768;9.184;2023-03-01T09:21:08;7.30;99.90
27741;DHT22;15134;48.768;9.184;2023-03-01T09:23:35;7.30;99.90
27741;DHT22;15134;48.768;9.184;2023-03-01T09:26:10;7.40;99.90
27741;DHT22;15134;48.768;9.184;2023-03-01T09:28:40;7.40;99.90
27741;DHT22;15134;48.768;9.184;2023-03-01T09:31:10;7.30;99.90
27741;DHT22;15134;48.768;9.184;2023-03-01T09:33:42;7.10;99.90
27741;DHT22;15134;48.768;9.184;2023-03-01T09:36:12;7.30;99.90
27741;DHT22;15134;48.768;9.184;2023-03-01T09:38:38;7.60;99.90
27741;DHT22;15134;48.768;9.184;2023-03-01T09:41:10;7.70;99.90
27741;DHT22;15134;48.768;9.184;2023-03-01T09:47:00;7.50;99.90
27741;DHT22;15134;48.768;9.184;2023-03-01T09:49:29;7.50;99.90
27741;DHT22;15134;48.768;9.184;2023-03-01T09:52:13;7.40;99.90
27741;DHT22;15134;48.768;9.184;2023-03-01T09:54:45;7.30;99.90
27741;DHT22;15134;48.768;9.184;2023-03-01T09:57:33;7.20;99.90
27741;DHT22;15134;48.768;9.184;2023-03-01T10:00:16;7.30;99.90
27741;DHT22;15134;48.768;9.184;2023-03-01T10:06:14;7.20;99.90
27741;DHT22;15134;48.768;9.184;2023-03-01T10:09:12;7.00;99.90
27741;DHT22;15134;48.768;9.184;2023-03-01T10:11:43;6.90;99.90
27741;DHT22;15134;48.768;9.184;2023-03-01T10:14:30;6.80;99.90
27741;DHT22;15134;48.768;9.184;2023-03-01T10:19:48;6.90;99.90
27741;DHT22;15134;48.768;9.184;2023-03-01T10:22:20;7.10;99.90
27741;DHT22;15134;48.768;9.184;2023-03-01T10:24:58;7.20;99.90
27741;DHT22;15134;48.768;9.184;2023-03-01T10:27:34;7.30;99.90
27741;DHT22;15134;48.768;9.184;2023-03-01T10:30:20;7.30;99.90
27741;DHT22;15134;48.768;9.184;2023-03-01T10:32:51;7.20;99.90
27741;DHT22;15134;48.768;9.184;2023-03-01T10:35:27;6.90;99.90
27741;DHT22;15134;48.768;9.184;2023-03-01T10:38:12;6.90;99.90
27741;DHT22;15134;48.768;9.184;2023-03-01T10:40:59;7.00;99.90
27741;DHT22;15134;48.768;9.184;2023-03-01T10:43:48;7.10;99.90
27741;DHT22;15134;48.768;9.184;2023-03-01T10:49:22;7.10;99.90
27741;DHT22;15134;48.768;9.184;2023-03-01T10:51:50;7.10;99.90
27741;DHT22;15134;48.768;9.184;2023-03-01T10:54:23;7.10;99.90
27741;DHT22;15134;48.768;9.184;2023-03-01T10:56:54;7.20;99.90
27741;DHT22;15134;48.768;9.184;2023-03-01T10:59:36;7.00;99.90
27741;DHT22;15134;48.768;9.184;2023-03-01T11:02:20;7.00;99.90
27741;DHT22;15134;48.768;9.184;2023-03-01T11:07:57;7.10;99.90
27741;DHT22;15134;48.768;9.184;2023-03-01T11:10:27;7.30;99.90
27741;DHT22;15134;48.768;9.184;2023-03-01T11:12:56;7.10;99.90
27741;DHT22;15134;48.768;9.184;2023-03-01T11:15:30;7.00;99.90
27741;DHT22;15134;48.768;9.184;2023-03-01T11:17:59;6.90;99.90
27741;DHT22;15134;48.768;9.184;2023-03-01T11:20:34;7.00;99.90
27741;DHT22;15134;48.768;9.184;2023-03-01T11:23:14;7.20;99.90
27741;DHT22;15134;48.768;9.184;2023-03-01T11:26:07;7.40;99.90
27741;DHT22;15134;48.768;9.184;2023-03-01T11:28:35;7.30;99.90
27741;DHT22;15134;48.768;9.184;2023-03-01T11:31:06;7.10;99.90
27741;DHT22;15134;48.768;9.184;2023-03-01T11:34:14;7.00;99.90
27741;DHT22;15134;48.768;9.184;2023-03-01T11:36:49;7.00;99.90
27741;DHT22;15134;48.768;9.184;2023-03-01T11:39:38;7.30;99.90
27741;DHT22;15134;48.768;9.184;2023-03-01T11:42:15;7.40;99.90
27741;DHT22;15134;48.768;9.184;2023-03-01T11:44:48;7.60;99.90
27741;DHT22;15134;48.768;9.184;2023-03-01T11:47:40;7.80;99.90
27741;DHT22;15134;48.768;9.184;2023-03-01T11:50:59;7.90;99.90
27741;DHT22;15134;48.768;9.184;2023-03-01T11:56:16;7.90;99.90
27741;DHT22;15134;48.768;9.184;2023-03-01T11:59:00;7.90;99.90
27741;DHT22;15134;48.768;9.184;2023-03-01T12:06:59;7.90;99.90
27741;DHT22;15134;48.768;9.184;2023-03-01T12:26:34;8.20;99.90
27741;DHT22;15134;48.768;9.184;2023-03-01T12:29:26;8.00;99.90
27741;DHT22;15134;48.768;9.184;2023-03-01T12:35:06;7.70;99.90
27741;DHT22;15134;48.768;9.184;2023-03-01T12:38:04;7.80;99.90
27741;DHT22;15134;48.768;9.184;2023-03-01T12:40:46;7.90;99.90
27741;DHT22;15134;48.768;9.184;2023-03-01T12:46:19;8.00;99.90
27741;DHT22;15134;48.768;9.184;2023-03-01T12:49:13;8.00;99.90
27741;DHT22;15134;48.768;9.184;2023-03-01T12:51:54;7.80;99.90
27741;DHT22;15134;48.768;9.184;2023-03-01T12:54:33;7.80;99.90
27741;DHT22;15134;48.768;9.184;2023-03-01T13:03:18;7.90;99.90
27741;DHT22;15134;48.768;9.184;2023-03-01T13:05:53;8.10;99.90
27741;DHT22;15134;48.768;9.184;2023-03-01T13:08:31;8.20;99.90
27741;DHT22;15134;48.768;9.184;2023-03-01T13:11:02;8.20;99.90
27741;DHT22;15134;48.768;9.184;2023-03-01T13:13:29;8.20;99.90
27741;DHT22;15134;48.768;9.184;2023-03-01T13:16:27;8.20;99.90
27741;DHT22;15134;48.768;9.184;2023-03-01T13:21:39;8.10;99.90
27741;DHT22;15134;48.768;9.184;2023-03-01T13:27:11;8.20;99.90
27741;DHT22;15134;48.768;9.184;2023-03-01T13:29:59;8.20;99.90
27741;DHT22;15134;48.768;9.184;2023-03-01T13:32:36;8.20;99.90
27741;DHT22;15134;48.768;9.184;2023-03-01T13:37:41;8.10;99.90
27741;DHT22;15134;48.768;9.184;2023-03-01T13:42:49;8.10;99.90
27741;DHT22;15134;48.768;9.184;2023-03-01T13:45:38;8.10;99.90
27741;DHT22;15134;48.768;9.184;2023-03-01T13:48:26;8.10;99.90
27741;DHT22;15134;48.768;9.184;2023-03-01T13:51:00;8.10;99.90
27741;DHT22;15134;48.768;9.184;2023-03-01T13:53:34;8.00;99.90
27741;DHT22;15134;48.768;9.184;2023-03-01T13:56:21;8.10;99.90
27741;DHT22;15134;48.768;9.184;2023-03-01T13:58:57;8.10;99.90
27741;DHT22;15134;48.768;9.184;2023-03-01T14:01:36;8.00;99.90
27741;DHT22;15134;48.768;9.184;2023-03-01T14:04:26;8.00;99.90
27741;DHT22;15134;48.768;9.184;2023-03-01T14:07:24;8.00;99.90
27741;DHT22;15134;48.768;9.184;2023-03-01T14:10:16;8.00;99.90
27741;DHT22;15134;48.768;9.184;2023-03-01T14:21:17;7.70;99.90
27741;DHT22;15134;48.768;9.184;2023-03-01T14:23:43;7.60;99.90
27741;DHT22;15134;48.768;9.184;2023-03-01T14:26:12;7.60;99.90
27741;DHT22;15134;48.768;9.184;2023-03-01T14:28:38;7.70;99.90
27741;DHT22;15134;48.768;9.184;2023-03-01T14:31:38;7.60;99.90
27741;DHT22;15134;48.768;9.184;2023-03-01T14:34:16;7.60;99.90
27741;DHT22;15134;48.768;9.184;2023-03-01T14:36:49;7.60;99.90
27741;DHT22;15134;48.768;9.184;2023-03-01T14:39:17;7.60;99.90
27741;DHT22;15134;48.768;9.184;2023-03-01T14:41:44;7.50;99.90
27741;DHT22;15134;48.768;9.184;2023-03-01T14:44:19;7.50;99.90
27741;DHT22;15134;48.768;9.184;2023-03-01T14:46:54;7.50;99.90
27741;DHT22;15134;48.768;9.184;2023-03-01T14:49:27;7.50;99.90
27741;DHT22;15134;48.768;9.184;2023-03-01T14:52:02;7.50;99.90
27741;DHT22;15134;48.768;9.184;2023-03-01T14:54:48;7.50;99.90
27741;DHT22;15134;48.768;9.184;2023-03-01T14:57:18;7.50;99.90
27741;DHT22;15134;48.768;9.184;2023-03-01T15:00:00;7.50;99.90
27741;DHT22;15134;48.768;9.184;2023-03-01T15:02:30;7.60;99.90
27741;DHT22;15134;48.768;9.184;2023-03-01T15:04:57;7.50;99.90
27741;DHT22;15134;48.768;9.184;2023-03-01T15:07:28;7.60;99.90
27741;DHT22;15134;48.768;9.184;2023-03-01T15:09:54;7.50;99.90
27741;DHT22;15134;48.768;9.184;2023-03-01T15:12:25;7.60;99.90
27741;DHT22;15134;48.768;9.184;2023-03-01T15:14:50;7.50;99.90
27741;DHT22;15134;48.768;9.184;2023-03-01T15:17:38;7.50;99.90
27741;DHT22;15134;48.768;9.184;2023-03-01T15:20:13;7.40;99.90
27741;DHT22;15134;48.768;9.184;2023-03-01T15:22:40;7.40;99.90
27741;DHT22;15134;48.768;9.184;2023-03-01T15:25:18;7.40;99.90
27741;DHT22;15134;48.768;9.184;2023-03-01T15:27:48;7.30;99.90
27741;DHT22;15134;48.768;9.184;2023-03-01T15:35:53;7.30;99.90
27741;DHT22;15134;48.768;9.184;2023-03-01T15:38:32;7.30;99.90
27741;DHT22;15134;48.768;9.184;2023-03-01T15:41:05;7.30;99.90
27741;DHT22;15134;48.768;9.184;2023-03-01T15:43:49;7.20;99.90
27741;DHT22;15134;48.768;9.184;2023-03-01T15:48:49;7.20;99.90
27741;DHT22;15134;48.768;9.184;2023-03-01T15:51:28;7.20;99.90
27741;DHT22;15134;48.768;9.184;2023-03-01T15:53:54;7.30;99.90
27741;DHT22;15134;48.768;9.184;2023-03-01T15:56:20;7.30;99.90
27741;DHT22;15134;48.768;9.184;2023-03-01T15:58:45;7.20;99.90
27741;DHT22;15134;48.768;9.184;2023-03-01T16:01:15;7.20;99.90
27741;DHT22;15134;48.768;9.184;2023-03-01T16:03:44;7.20;99.90
27741;DHT22;15134;48.768;9.184;2023-03-01T16:06:10;7.10;99.90
27741;DHT22;15134;48.768;9.184;2023-03-01T16:08:42;7.10;99.90
27741;DHT22;15134;48.768;9.184;2023-03-01T16:11:10;7.10;99.90
27741;DHT22;15134;48.768;9.184;2023-03-01T16:13:39;7.00;99.90
27741;DHT22;15134;48.768;9.184;2023-03-01T16:16:04;7.00;99.90
27741;DHT22;15134;48.768;9.184;2023-03-01T16:18:30;7.00;99.90
27741;DHT22;15134;48.768;9.184;2023-03-01T16:20:56;7.00;99.90
27741;DHT22;15134;48.768;9.184;2023-03-01T16:23:22;6.90;99.90
27741;DHT22;15134;48.768;9.184;2023-03-01T16:25:50;6.90;99.90
27741;DHT22;15134;48.768;9.184;2023-03-01T16:28:16;6.90;99.90
27741;DHT22;15134;48.768;9.184;2023-03-01T16:30:45;6.90;99.90
27741;DHT22;15134;48.768;9.184;2023-03-01T16:33:14;6.80;99.90
27741;DHT22;15134;48.768;9.184;2023-03-01T16:35:39;6.80;99.90
27741;DHT22;15134;48.768;9.184;2023-03-01T16:38:05;6.70;99.90
27741;DHT22;15134;48.768;9.184;2023-03-01T16:40:31;6.70;99.90
27741;DHT22;15134;48.768;9.184;2023-03-01T16:42:57;6.70;99.90
27741;DHT22;15134;48.768;9.184;2023-03-01T16:45:27;6.60;99.90
27741;DHT22;15134;48.768;9.184;2023-03-01T16:47:53;6.60;99.90
27741;DHT22;15134;48.768;9.184;2023-03-01T16:50:19;6.60;99.90
27741;DHT22;15134;48.768;9.184;2023-03-01T16:52:44;6.50;99.90
27741;DHT22;15134;48.768;9.184;2023-03-01T16:55:10;6.50;99.90
27741;DHT22;15134;48.768;9.184;2023-03-01T16:57:38;6.50;99.90
27741;DHT22;15134;48.768;9.184;2023-03-01T17:00:05;6.40;99.90
27741;DHT22;15134;48.768;9.184;2023-03-01T17:02:33;6.40;99.90
27741;DHT22;15134;48.768;9.184;2023-03-01T17:04:59;6.30;99.90
27741;DHT22;15134;48.768;9.184;2023-03-01T17:07:24;6.30;99.90
27741;DHT22;15134;48.768;9.184;2023-03-01T17:09:50;6.20;99.90
27741;DHT22;15134;48.768;9.184;2023-03-01T17:12:16;6.20;99.90
27741;DHT22;15134;48.768;9.184;2023-03-01T17:14:42;6.10;99.90
27741;DHT22;15134;48.768;9.184;2023-03-01T17:17:08;6.10;99.90
27741;DHT22;15134;48.768;9.184;2023-03-01T17:19:37;6.00;99.90
27741;DHT22;15134;48.768;9.184;2023-03-01T17:22:09;6.00;99.90
27741;DHT22;15134;48.768;9.184;2023-03-01T17:24:38;6.00;99.90
27741;DHT22;15134;48.768;9.184;2023-03-01T17:27:04;6.00;99.90
27741;DHT22;15134;48.768;9.184;2023-03-01T17:29:30;5.90;99.90
27741;DHT22;15134;48.768;9.184;2023-03-01T17:31:56;5.80;99.90
27741;DHT22;15134;48.768;9.184;2023-03-01T17:34:22;5.80;99.90